EST,Max TemperatureF,Mean TemperatureF,Min TemperatureF,Max Dew PointF,MeanDew PointF,Min DewpointF,Max Humidity, Mean Humidity, Min Humidity, Max Sea Level PressureIn, Mean Sea Level PressureIn, Min Sea Level PressureIn, Max VisibilityMiles, Mean VisibilityMiles, Min VisibilityMiles, Max Wind SpeedMPH, Mean Wind SpeedMPH, Max Gust SpeedMPH,PrecipitationIn, CloudCover, Events, WindDirDegrees
2014-2-1,48,39,30,29,24,20,78,55,31,30.33,30.23,30.03,10,10,7,12,2,14,0.00,6,,139
2014-2-2,53,41,29,37,31,26,92,67,41,30.09,30.00,29.95,10,9,5,14,4,16,0.00,6,,254
2014-2-3,45,38,31,36,30,22,89,77,65,30.34,30.14,30.06,10,5,0,20,11,23,1.15,8,Fog-Rain-Snow,21
2014-2-4,35,30,24,27,21,15,78,67,56,30.49,30.38,30.22,10,9,2,12,6,17,0.01,7,Rain,43
2014-2-5,38,35,31,32,29,20,89,73,56,30.21,29.91,29.68,10,4,1,28,11,35,1.43,8,Rain,32
2014-2-6,32,28,24,19,14,11,63,55,47,30.34,30.27,30.07,10,10,10,24,10,33,0.00,6,,316
2014-2-7,35,29,22,17,15,12,68,53,38,30.37,30.32,30.27,10,10,8,15,7,18,0.00,3,,262
2014-2-8,30,27,24,18,11,3,68,51,34,30.38,30.30,30.20,10,9,4,13,4,15,T,7,Snow,277
2014-2-9,31,27,22,25,17,10,84,65,46,30.22,30.10,30.03,10,6,0,13,5,20,0.15,7,Snow,250
2014-2-10,29,24,18,20,10,6,88,64,39,30.32,30.20,30.07,10,9,5,18,10,23,0.00,5,,304
2014-2-11,27,22,16,7,4,2,61,47,33,30.51,30.41,30.33,10,10,7,18,9,24,0.00,1,,327
2014-2-12,27,20,12,20,10,0,81,62,42,30.58,30.43,30.24,10,8,1,17,9,21,0.05,6,Snow,46
2014-2-13,36,30,24,32,28,19,92,87,81,30.23,29.64,29.16,9,2,0,35,20,44,1.25,8,Fog-Rain-Snow-Thunderstorm,26
2014-2-14,44,38,31,29,25,19,85,63,40,29.80,29.43,29.18,10,7,1,31,14,38,0.21,6,Snow,283
2014-2-15,37,33,29,31,26,11,82,65,47,29.87,29.68,29.58,10,6,1,29,13,36,0.10,8,Rain-Snow,7
2014-2-16,30,26,21,14,9,6,57,48,39,30.18,30.03,29.89,10,10,10,24,12,33,0.00,5,,299
2014-2-17,34,27,19,12,6,2,60,45,29,30.45,30.36,30.21,10,10,10,18,7,23,0.00,3,,317
2014-2-18,45,36,26,30,24,12,92,71,49,30.31,30.14,30.01,10,6,0,18,6,23,0.21,6,Fog-Snow,116
2014-2-19,46,37,27,39,31,23,92,75,58,30.12,29.88,29.72,10,5,1,24,5,29,0.36,6,Rain-Thunderstorm,328
2014-2-20,52,41,29,30,25,18,78,54,29,30.29,30.16,30.00,10,10,10,13,5,15,0.00,6,,187
2014-2-21,63,49,35,54,39,29,93,82,70,30.00,29.83,29.64,10,6,0,32,7,43,0.11,7,Fog-Rain-Thunderstorm,62
2014-2-22,59,45,31,32,28,22,92,58,24,30.11,30.04,29.97,10,8,2,25,10,29,0.00,2,,229
2014-2-23,57,48,38,34,29,23,70,50,29,30.03,29.96,29.89,10,10,8,21,7,26,T,5,Rain,286
2014-2-24,40,36,31,32,18,6,82,54,25,30.14,29.98,29.91,10,10,7,29,14,36,T,4,Rain,281
2014-2-25,35,31,26,20,12,7,58,47,35,30.14,30.08,30.00,10,10,7,21,10,27,T,5,Snow,269
2014-2-26,33,27,20,25,15,-4,85,56,27,30.01,29.94,29.88,10,6,0,26,11,36,0.09,6,Fog-Snow,263
2014-2-27,35,26,16,17,3,-15,51,38,24,30.18,29.83,29.68,10,10,8,32,14,44,T,3,Snow,244
2014-2-28,26,18,10,3,-10,-15,43,32,21,30.45,30.38,30.21,10,10,10,25,7,31,0.00,1,,324